sensor_id;sensor_type;location;lat;lon;timestamp;P1;durP1;ratioP1;P2;durP2;ratioP2
4464;SDS011;2245;48.136;13.428;2022-07-23T00:00:37;7.37;;;6.77;;
4464;SDS011;2245;48.136;13.428;2022-07-23T00:03:04;7.23;;;6.67;;
4464;SDS011;2245;48.136;13.428;2022-07-23T00:05:31;13.97;;;7.20;;
4464;SDS011;2245;48.136;13.428;2022-07-23T00:07:58;5.33;;;4.83;;
4464;SDS011;2245;48.136;13.428;2022-07-23T00:10:26;5.67;;;5.17;;
4464;SDS011;2245;48.136;13.428;2022-07-23T00:12:53;5.80;;;5.30;;
4464;SDS011;2245;48.136;13.428;2022-07-23T00:15:20;5.37;;;4.50;;
4464;SDS011;2245;48.136;13.428;2022-07-23T00:17:47;4.17;;;3.77;;
4464;SDS011;2245;48.136;13.428;2022-07-23T00:20:14;4.27;;;3.83;;
4464;SDS011;2245;48.136;13.428;2022-07-23T00:22:51;2.83;;;2.63;;
4464;SDS011;2245;48.136;13.428;2022-07-23T00:25:19;2.80;;;2.60;;
4464;SDS011;2245;48.136;13.428;2022-07-23T00:27:47;2.13;;;2.03;;
4464;SDS011;2245;48.136;13.428;2022-07-23T00:30:14;2.40;;;2.20;;
4464;SDS011;2245;48.136;13.428;2022-07-23T00:32:45;2.63;;;2.30;;
4464;SDS011;2245;48.136;13.428;2022-07-23T00:35:12;4.33;;;2.07;;
4464;SDS011;2245;48.136;13.428;2022-07-23T00:37:39;2.87;;;2.40;;
4464;SDS011;2245;48.136;13.428;2022-07-23T00:40:07;2.50;;;2.27;;
4464;SDS011;2245;48.136;13.428;2022-07-23T00:42:35;2.00;;;1.90;;
4464;SDS011;2245;48.136;13.428;2022-07-23T00:45:03;2.37;;;2.17;;
4464;SDS011;2245;48.136;13.428;2022-07-23T00:47:31;3.10;;;2.20;;
4464;SDS011;2245;48.136;13.428;2022-07-23T00:49:58;7.67;;;2.50;;
4464;SDS011;2245;48.136;13.428;2022-07-23T00:52:25;2.27;;;2.10;;
4464;SDS011;2245;48.136;13.428;2022-07-23T00:54:52;2.40;;;2.20;;
4464;SDS011;2245;48.136;13.428;2022-07-23T00:57:19;3.13;;;2.30;;
4464;SDS011;2245;48.136;13.428;2022-07-23T00:59:45;2.97;;;2.77;;
4464;SDS011;2245;48.136;13.428;2022-07-23T01:02:14;2.50;;;1.67;;
4464;SDS011;2245;48.136;13.428;2022-07-23T01:04:41;3.13;;;2.50;;
4464;SDS011;2245;48.136;13.428;2022-07-23T01:07:08;5.07;;;2.40;;
4464;SDS011;2245;48.136;13.428;2022-07-23T01:09:34;2.57;;;2.37;;
4464;SDS011;2245;48.136;13.428;2022-07-23T01:12:02;2.80;;;2.60;;
4464;SDS011;2245;48.136;13.428;2022-07-23T01:14:29;2.60;;;2.40;;
4464;SDS011;2245;48.136;13.428;2022-07-23T01:16:56;3.20;;;2.37;;
4464;SDS011;2245;48.136;13.428;2022-07-23T01:19:24;2.40;;;2.23;;
4464;SDS011;2245;48.136;13.428;2022-07-23T01:21:51;3.40;;;2.67;;
4464;SDS011;2245;48.136;13.428;2022-07-23T01:24:21;2.80;;;2.60;;
4464;SDS011;2245;48.136;13.428;2022-07-23T01:26:48;2.47;;;2.37;;
4464;SDS011;2245;48.136;13.428;2022-07-23T01:29:15;2.60;;;2.50;;
4464;SDS011;2245;48.136;13.428;2022-07-23T01:31:42;5.83;;;2.60;;
4464;SDS011;2245;48.136;13.428;2022-07-23T01:34:10;3.00;;;2.67;;
4464;SDS011;2245;48.136;13.428;2022-07-23T01:36:36;2.77;;;2.53;;
4464;SDS011;2245;48.136;13.428;2022-07-23T01:39:04;3.13;;;2.83;;
4464;SDS011;2245;48.136;13.428;2022-07-23T01:41:33;4.00;;;2.47;;
4464;SDS011;2245;48.136;13.428;2022-07-23T01:44:00;3.20;;;2.70;;
4464;SDS011;2245;48.136;13.428;2022-07-23T01:46:27;3.13;;;2.93;;
4464;SDS011;2245;48.136;13.428;2022-07-23T01:48:53;3.10;;;2.80;;
4464;SDS011;2245;48.136;13.428;2022-07-23T01:51:21;2.80;;;2.60;;
4464;SDS011;2245;48.136;13.428;2022-07-23T01:53:48;2.90;;;2.70;;
4464;SDS011;2245;48.136;13.428;2022-07-23T01:56:14;2.53;;;2.33;;
4464;SDS011;2245;48.136;13.428;2022-07-23T01:58:43;3.30;;;2.67;;
4464;SDS011;2245;48.136;13.428;2022-07-23T02:01:09;3.60;;;3.30;;
4464;SDS011;2245;48.136;13.428;2022-07-23T02:03:36;3.97;;;2.50;;
4464;SDS011;2245;48.136;13.428;2022-07-23T02:06:03;2.63;;;2.43;;
4464;SDS011;2245;48.136;13.428;2022-07-23T02:08:30;8.43;;;3.00;;
4464;SDS011;2245;48.136;13.428;2022-07-23T02:10:57;10.60;;;3.20;;
4464;SDS011;2245;48.136;13.428;2022-07-23T02:13:24;4.83;;;3.57;;
4464;SDS011;2245;48.136;13.428;2022-07-23T02:15:52;4.77;;;3.00;;
4464;SDS011;2245;48.136;13.428;2022-07-23T02:18:19;3.43;;;2.70;;
4464;SDS011;2245;48.136;13.428;2022-07-23T02:20:46;4.07;;;3.73;;
4464;SDS011;2245;48.136;13.428;2022-07-23T02:23:13;4.27;;;3.33;;
4464;SDS011;2245;48.136;13.428;2022-07-23T02:25:40;3.20;;;3.00;;
4464;SDS011;2245;48.136;13.428;2022-07-23T02:28:07;3.27;;;2.97;;
4464;SDS011;2245;48.136;13.428;2022-07-23T02:30:34;4.20;;;2.80;;
4464;SDS011;2245;48.136;13.428;2022-07-23T02:33:02;3.67;;;3.00;;
4464;SDS011;2245;48.136;13.428;2022-07-23T02:35:29;3.27;;;2.93;;
4464;SDS011;2245;48.136;13.428;2022-07-23T02:37:56;3.10;;;2.80;;
4464;SDS011;2245;48.136;13.428;2022-07-23T02:40:23;3.13;;;2.93;;
4464;SDS011;2245;48.136;13.428;2022-07-23T02:42:50;3.30;;;2.70;;
4464;SDS011;2245;48.136;13.428;2022-07-23T02:45:17;3.67;;;3.37;;
4464;SDS011;2245;48.136;13.428;2022-07-23T02:47:43;3.50;;;3.20;;
4464;SDS011;2245;48.136;13.428;2022-07-23T02:50:12;3.87;;;3.53;;
4464;SDS011;2245;48.136;13.428;2022-07-23T02:52:39;5.37;;;2.87;;
4464;SDS011;2245;48.136;13.428;2022-07-23T02:55:06;3.83;;;3.30;;
4464;SDS011;2245;48.136;13.428;2022-07-23T02:57:33;2.93;;;2.63;;
4464;SDS011;2245;48.136;13.428;2022-07-23T03:00:00;3.60;;;3.30;;
4464;SDS011;2245;48.136;13.428;2022-07-23T03:02:27;4.50;;;3.37;;
4464;SDS011;2245;48.136;13.428;2022-07-23T03:04:54;3.70;;;3.40;;
4464;SDS011;2245;48.136;13.428;2022-07-23T03:07:22;3.90;;;3.60;;
4464;SDS011;2245;48.136;13.428;2022-07-23T03:09:49;4.37;;;3.30;;
4464;SDS011;2245;48.136;13.428;2022-07-23T03:12:16;7.60;;;3.60;;
4464;SDS011;2245;48.136;13.428;2022-07-23T03:14:43;9.07;;;3.63;;
4464;SDS011;2245;48.136;13.428;2022-07-23T03:17:10;6.63;;;3.67;;
4464;SDS011;2245;48.136;13.428;2022-07-23T03:19:37;7.40;;;3.80;;
4464;SDS011;2245;48.136;13.428;2022-07-23T03:22:03;4.27;;;3.97;;
4464;SDS011;2245;48.136;13.428;2022-07-23T03:24:32;7.63;;;4.50;;
4464;SDS011;2245;48.136;13.428;2022-07-23T03:27:15;6.93;;;4.47;;
4464;SDS011;2245;48.136;13.428;2022-07-23T03:29:42;5.83;;;4.77;;
4464;SDS011;2245;48.136;13.428;2022-07-23T03:32:09;6.97;;;5.40;;
4464;SDS011;2245;48.136;13.428;2022-07-23T03:34:36;8.20;;;5.40;;
4464;SDS011;2245;48.136;13.428;2022-07-23T03:37:03;7.20;;;6.27;;
4464;SDS011;2245;48.136;13.428;2022-07-23T03:39:29;7.43;;;5.70;;
4464;SDS011;2245;48.136;13.428;2022-07-23T03:41:58;8.53;;;6.30;;
4464;SDS011;2245;48.136;13.428;2022-07-23T03:44:24;7.33;;;6.67;;
4464;SDS011;2245;48.136;13.428;2022-07-23T03:46:51;13.07;;;6.50;;
4464;SDS011;2245;48.136;13.428;2022-07-23T03:49:18;8.43;;;5.83;;
4464;SDS011;2245;48.136;13.428;2022-07-23T03:51:45;8.40;;;7.60;;
4464;SDS011;2245;48.136;13.428;2022-07-23T03:54:13;7.47;;;5.87;;
4464;SDS011;2245;48.136;13.428;2022-07-23T03:56:41;7.03;;;6.33;;
4464;SDS011;2245;48.136;13.428;2022-07-23T03:59:08;7.83;;;6.97;;
4464;SDS011;2245;48.136;13.428;2022-07-23T04:01:36;10.30;;;6.47;;
4464;SDS011;2245;48.136;13.428;2022-07-23T04:04:03;11.67;;;5.93;;
4464;SDS011;2245;48.136;13.428;2022-07-23T04:06:30;8.73;;;7.10;;
4464;SDS011;2245;48.136;13.428;2022-07-23T04:08:57;6.90;;;6.27;;
4464;SDS011;2245;48.136;13.428;2022-07-23T04:11:24;7.90;;;5.90;;
4464;SDS011;2245;48.136;13.428;2022-07-23T04:13:52;11.80;;;6.17;;
4464;SDS011;2245;48.136;13.428;2022-07-23T04:16:19;7.00;;;6.30;;
4464;SDS011;2245;48.136;13.428;2022-07-23T04:18:46;10.47;;;6.50;;
4464;SDS011;2245;48.136;13.428;2022-07-23T04:21:13;7.20;;;6.50;;
4464;SDS011;2245;48.136;13.428;2022-07-23T04:23:40;6.47;;;5.87;;
4464;SDS011;2245;48.136;13.428;2022-07-23T04:26:07;7.73;;;5.50;;
4464;SDS011;2245;48.136;13.428;2022-07-23T04:28:34;8.73;;;5.93;;
4464;SDS011;2245;48.136;13.428;2022-07-23T04:31:02;6.57;;;5.13;;
4464;SDS011;2245;48.136;13.428;2022-07-23T04:33:29;8.00;;;5.20;;
4464;SDS011;2245;48.136;13.428;2022-07-23T04:35:56;10.20;;;6.00;;
4464;SDS011;2245;48.136;13.428;2022-07-23T04:38:23;8.60;;;5.53;;
4464;SDS011;2245;48.136;13.428;2022-07-23T04:40:49;7.50;;;5.70;;
4464;SDS011;2245;48.136;13.428;2022-07-23T04:43:16;5.60;;;5.10;;
4464;SDS011;2245;48.136;13.428;2022-07-23T04:45:43;7.77;;;6.40;;
4464;SDS011;2245;48.136;13.428;2022-07-23T04:48:11;7.23;;;5.67;;
4464;SDS011;2245;48.136;13.428;2022-07-23T04:50:38;6.07;;;5.47;;
4464;SDS011;2245;48.136;13.428;2022-07-23T04:53:05;9.00;;;6.67;;
4464;SDS011;2245;48.136;13.428;2022-07-23T04:55:32;6.17;;;5.57;;
4464;SDS011;2245;48.136;13.428;2022-07-23T04:57:59;7.70;;;5.50;;
4464;SDS011;2245;48.136;13.428;2022-07-23T05:00:26;7.93;;;5.60;;
4464;SDS011;2245;48.136;13.428;2022-07-23T05:02:52;5.10;;;4.80;;
4464;SDS011;2245;48.136;13.428;2022-07-23T05:05:21;10.77;;;5.50;;
4464;SDS011;2245;48.136;13.428;2022-07-23T05:07:48;7.40;;;5.30;;
4464;SDS011;2245;48.136;13.428;2022-07-23T05:10:15;6.67;;;4.60;;
4464;SDS011;2245;48.136;13.428;2022-07-23T05:12:42;9.23;;;5.67;;
4464;SDS011;2245;48.136;13.428;2022-07-23T05:15:09;8.57;;;6.10;;
4464;SDS011;2245;48.136;13.428;2022-07-23T05:17:36;7.40;;;6.70;;
4464;SDS011;2245;48.136;13.428;2022-07-23T05:20:03;5.80;;;5.30;;
4464;SDS011;2245;48.136;13.428;2022-07-23T05:22:32;5.83;;;5.33;;
4464;SDS011;2245;48.136;13.428;2022-07-23T05:24:59;6.10;;;5.60;;
4464;SDS011;2245;48.136;13.428;2022-07-23T05:27:26;12.33;;;6.30;;
4464;SDS011;2245;48.136;13.428;2022-07-23T05:29:53;10.27;;;5.53;;
4464;SDS011;2245;48.136;13.428;2022-07-23T05:32:20;7.20;;;5.63;;
4464;SDS011;2245;48.136;13.428;2022-07-23T05:34:47;9.33;;;6.60;;
4464;SDS011;2245;48.136;13.428;2022-07-23T05:37:13;13.23;;;5.90;;
4464;SDS011;2245;48.136;13.428;2022-07-23T05:39:42;8.23;;;6.40;;
4464;SDS011;2245;48.136;13.428;2022-07-23T05:42:09;11.43;;;7.30;;
4464;SDS011;2245;48.136;13.428;2022-07-23T05:44:35;9.00;;;6.23;;
4464;SDS011;2245;48.136;13.428;2022-07-23T05:47:02;15.60;;;6.67;;
4464;SDS011;2245;48.136;13.428;2022-07-23T05:49:30;16.33;;;7.17;;
4464;SDS011;2245;48.136;13.428;2022-07-23T05:51:56;13.67;;;7.00;;
4464;SDS011;2245;48.136;13.428;2022-07-23T05:54:24;8.23;;;7.33;;
4464;SDS011;2245;48.136;13.428;2022-07-23T05:56:52;7.63;;;6.10;;
4464;SDS011;2245;48.136;13.428;2022-07-23T05:59:19;8.10;;;6.63;;
4464;SDS011;2245;48.136;13.428;2022-07-23T06:01:46;10.23;;;6.70;;
4464;SDS011;2245;48.136;13.428;2022-07-23T06:04:13;8.77;;;6.53;;
4464;SDS011;2245;48.136;13.428;2022-07-23T06:06:40;8.53;;;5.67;;
4464;SDS011;2245;48.136;13.428;2022-07-23T06:09:06;7.23;;;6.60;;
4464;SDS011;2245;48.136;13.428;2022-07-23T06:11:35;8.77;;;6.97;;
4464;SDS011;2245;48.136;13.428;2022-07-23T06:14:03;6.23;;;5.60;;
4464;SDS011;2245;48.136;13.428;2022-07-23T06:16:30;5.87;;;5.40;;
4464;SDS011;2245;48.136;13.428;2022-07-23T06:18:57;9.30;;;6.57;;
4464;SDS011;2245;48.136;13.428;2022-07-23T06:21:24;7.00;;;5.20;;
4464;SDS011;2245;48.136;13.428;2022-07-23T06:23:51;13.93;;;5.37;;
4464;SDS011;2245;48.136;13.428;2022-07-23T06:26:18;7.03;;;5.60;;
4464;SDS011;2245;48.136;13.428;2022-07-23T06:28:45;4.87;;;4.47;;
4464;SDS011;2245;48.136;13.428;2022-07-23T06:31:13;7.63;;;5.03;;
4464;SDS011;2245;48.136;13.428;2022-07-23T06:33:40;5.83;;;5.10;;
4464;SDS011;2245;48.136;13.428;2022-07-23T06:36:07;5.70;;;5.13;;
4464;SDS011;2245;48.136;13.428;2022-07-23T06:38:34;5.93;;;5.33;;
4464;SDS011;2245;48.136;13.428;2022-07-23T06:41:01;6.30;;;5.67;;
4464;SDS011;2245;48.136;13.428;2022-07-23T06:43:29;6.30;;;5.50;;
4464;SDS011;2245;48.136;13.428;2022-07-23T06:45:56;7.27;;;4.90;;
4464;SDS011;2245;48.136;13.428;2022-07-23T06:48:25;4.63;;;4.20;;
4464;SDS011;2245;48.136;13.428;2022-07-23T06:50:52;5.80;;;5.20;;
4464;SDS011;2245;48.136;13.428;2022-07-23T06:53:19;5.00;;;4.60;;
4464;SDS011;2245;48.136;13.428;2022-07-23T06:55:46;5.37;;;4.80;;
4464;SDS011;2245;48.136;13.428;2022-07-23T06:58:12;6.53;;;4.87;;
4464;SDS011;2245;48.136;13.428;2022-07-23T07:00:39;5.60;;;5.03;;
4464;SDS011;2245;48.136;13.428;2022-07-23T07:03:06;6.93;;;4.93;;
4464;SDS011;2245;48.136;13.428;2022-07-23T07:05:35;12.50;;;5.73;;
4464;SDS011;2245;48.136;13.428;2022-07-23T07:08:02;18.83;;;5.87;;
4464;SDS011;2245;48.136;13.428;2022-07-23T07:10:29;6.53;;;6.03;;
4464;SDS011;2245;48.136;13.428;2022-07-23T07:12:56;16.30;;;10.93;;
4464;SDS011;2245;48.136;13.428;2022-07-23T07:15:23;17.97;;;11.07;;
4464;SDS011;2245;48.136;13.428;2022-07-23T07:17:50;10.77;;;6.07;;
4464;SDS011;2245;48.136;13.428;2022-07-23T07:20:17;7.27;;;5.93;;
4464;SDS011;2245;48.136;13.428;2022-07-23T07:22:45;6.60;;;6.00;;
4464;SDS011;2245;48.136;13.428;2022-07-23T07:25:13;7.47;;;6.00;;
4464;SDS011;2245;48.136;13.428;2022-07-23T07:27:40;6.97;;;5.47;;
4464;SDS011;2245;48.136;13.428;2022-07-23T07:30:09;5.87;;;5.37;;
4464;SDS011;2245;48.136;13.428;2022-07-23T07:32:37;6.93;;;5.63;;
4464;SDS011;2245;48.136;13.428;2022-07-23T07:35:04;6.10;;;5.43;;
4464;SDS011;2245;48.136;13.428;2022-07-23T07:37:31;5.20;;;4.73;;
4464;SDS011;2245;48.136;13.428;2022-07-23T07:40:00;17.67;;;5.77;;
4464;SDS011;2245;48.136;13.428;2022-07-23T07:42:26;13.73;;;6.73;;
4464;SDS011;2245;48.136;13.428;2022-07-23T07:44:53;6.93;;;5.97;;
4464;SDS011;2245;48.136;13.428;2022-07-23T07:47:20;17.03;;;6.27;;
4464;SDS011;2245;48.136;13.428;2022-07-23T07:49:47;21.33;;;7.00;;
4464;SDS011;2245;48.136;13.428;2022-07-23T07:52:14;6.40;;;5.80;;
4464;SDS011;2245;48.136;13.428;2022-07-23T07:54:43;8.87;;;5.80;;
4464;SDS011;2245;48.136;13.428;2022-07-23T07:57:15;9.37;;;5.53;;
4464;SDS011;2245;48.136;13.428;2022-07-23T07:59:42;9.23;;;5.80;;
4464;SDS011;2245;48.136;13.428;2022-07-23T08:02:09;10.93;;;6.37;;
4464;SDS011;2245;48.136;13.428;2022-07-23T08:04:36;11.47;;;9.60;;
4464;SDS011;2245;48.136;13.428;2022-07-23T08:07:03;14.20;;;10.00;;
4464;SDS011;2245;48.136;13.428;2022-07-23T08:09:30;19.50;;;16.47;;
4464;SDS011;2245;48.136;13.428;2022-07-23T08:11:57;9.37;;;8.37;;
4464;SDS011;2245;48.136;13.428;2022-07-23T08:14:25;7.47;;;6.73;;
4464;SDS011;2245;48.136;13.428;2022-07-23T08:16:52;10.33;;;6.97;;
4464;SDS011;2245;48.136;13.428;2022-07-23T08:19:19;14.63;;;7.27;;
4464;SDS011;2245;48.136;13.428;2022-07-23T08:21:46;12.17;;;6.63;;
4464;SDS011;2245;48.136;13.428;2022-07-23T08:24:13;7.60;;;6.60;;
4464;SDS011;2245;48.136;13.428;2022-07-23T08:26:40;11.50;;;7.93;;
4464;SDS011;2245;48.136;13.428;2022-07-23T08:29:07;9.20;;;7.03;;
4464;SDS011;2245;48.136;13.428;2022-07-23T08:31:35;5.53;;;5.07;;
4464;SDS011;2245;48.136;13.428;2022-07-23T08:34:02;7.20;;;5.60;;
4464;SDS011;2245;48.136;13.428;2022-07-23T08:36:29;6.67;;;5.90;;
4464;SDS011;2245;48.136;13.428;2022-07-23T08:38:57;6.10;;;5.50;;
4464;SDS011;2245;48.136;13.428;2022-07-23T08:41:24;10.57;;;6.73;;
4464;SDS011;2245;48.136;13.428;2022-07-23T08:43:51;8.77;;;5.23;;
4464;SDS011;2245;48.136;13.428;2022-07-23T08:46:18;7.40;;;5.53;;
4464;SDS011;2245;48.136;13.428;2022-07-23T08:48:48;13.50;;;4.83;;
4464;SDS011;2245;48.136;13.428;2022-07-23T08:51:16;5.63;;;5.10;;
4464;SDS011;2245;48.136;13.428;2022-07-23T08:53:43;10.13;;;5.87;;
4464;SDS011;2245;48.136;13.428;2022-07-23T08:56:11;5.80;;;5.30;;
4464;SDS011;2245;48.136;13.428;2022-07-23T08:58:37;7.77;;;7.03;;
4464;SDS011;2245;48.136;13.428;2022-07-23T09:01:04;5.87;;;5.23;;
4464;SDS011;2245;48.136;13.428;2022-07-23T09:03:32;6.30;;;5.67;;
4464;SDS011;2245;48.136;13.428;2022-07-23T09:06:02;6.30;;;5.77;;
4464;SDS011;2245;48.136;13.428;2022-07-23T09:08:34;5.63;;;5.13;;
4464;SDS011;2245;48.136;13.428;2022-07-23T09:11:02;7.60;;;6.50;;
4464;SDS011;2245;48.136;13.428;2022-07-23T09:13:31;6.60;;;6.00;;
4464;SDS011;2245;48.136;13.428;2022-07-23T09:16:00;9.47;;;8.50;;
4464;SDS011;2245;48.136;13.428;2022-07-23T09:18:32;9.20;;;7.50;;
4464;SDS011;2245;48.136;13.428;2022-07-23T09:23:51;11.23;;;5.70;;
4464;SDS011;2245;48.136;13.428;2022-07-23T09:26:21;7.20;;;6.57;;
4464;SDS011;2245;48.136;13.428;2022-07-23T09:28:50;6.00;;;5.50;;
4464;SDS011;2245;48.136;13.428;2022-07-23T09:31:18;6.90;;;5.70;;
4464;SDS011;2245;48.136;13.428;2022-07-23T09:33:45;5.83;;;5.23;;
4464;SDS011;2245;48.136;13.428;2022-07-23T09:36:12;8.50;;;5.67;;
4464;SDS011;2245;48.136;13.428;2022-07-23T09:38:48;5.93;;;5.43;;
4464;SDS011;2245;48.136;13.428;2022-07-23T09:41:16;7.30;;;5.60;;
4464;SDS011;2245;48.136;13.428;2022-07-23T09:43:43;10.60;;;5.50;;
4464;SDS011;2245;48.136;13.428;2022-07-23T09:46:17;10.57;;;6.00;;
4464;SDS011;2245;48.136;13.428;2022-07-23T09:48:51;5.87;;;5.47;;
4464;SDS011;2245;48.136;13.428;2022-07-23T09:51:18;6.43;;;5.37;;
4464;SDS011;2245;48.136;13.428;2022-07-23T09:53:51;6.60;;;6.00;;
4464;SDS011;2245;48.136;13.428;2022-07-23T09:56:20;6.93;;;5.67;;
4464;SDS011;2245;48.136;13.428;2022-07-23T09:59:05;6.60;;;6.00;;
4464;SDS011;2245;48.136;13.428;2022-07-23T10:01:46;8.43;;;6.00;;
4464;SDS011;2245;48.136;13.428;2022-07-23T10:04:31;7.13;;;5.90;;
4464;SDS011;2245;48.136;13.428;2022-07-23T10:07:17;6.60;;;5.87;;
4464;SDS011;2245;48.136;13.428;2022-07-23T10:10:06;6.90;;;6.30;;
4464;SDS011;2245;48.136;13.428;2022-07-23T10:12:50;7.40;;;6.17;;
4464;SDS011;2245;48.136;13.428;2022-07-23T10:15:41;6.77;;;6.07;;
4464;SDS011;2245;48.136;13.428;2022-07-23T10:18:22;7.97;;;6.87;;
4464;SDS011;2245;48.136;13.428;2022-07-23T10:24:24;6.80;;;6.20;;
4464;SDS011;2245;48.136;13.428;2022-07-23T10:27:31;5.90;;;5.40;;
4464;SDS011;2245;48.136;13.428;2022-07-23T10:30:26;6.40;;;5.80;;
4464;SDS011;2245;48.136;13.428;2022-07-23T10:33:20;7.87;;;7.10;;
4464;SDS011;2245;48.136;13.428;2022-07-23T10:35:56;7.20;;;6.60;;
4464;SDS011;2245;48.136;13.428;2022-07-23T10:38:30;6.87;;;6.20;;
4464;SDS011;2245;48.136;13.428;2022-07-23T10:41:04;6.27;;;5.80;;
4464;SDS011;2245;48.136;13.428;2022-07-23T10:43:34;6.23;;;5.63;;
4464;SDS011;2245;48.136;13.428;2022-07-23T10:54:47;12.17;;;7.80;;
4464;SDS011;2245;48.136;13.428;2022-07-23T10:57:18;7.83;;;7.17;;
4464;SDS011;2245;48.136;13.428;2022-07-23T11:02:51;6.37;;;5.67;;
4464;SDS011;2245;48.136;13.428;2022-07-23T11:05:24;6.43;;;5.90;;
4464;SDS011;2245;48.136;13.428;2022-07-23T11:10:46;6.40;;;5.80;;
4464;SDS011;2245;48.136;13.428;2022-07-23T11:13:27;6.20;;;5.60;;
4464;SDS011;2245;48.136;13.428;2022-07-23T11:16:17;6.27;;;5.67;;
4464;SDS011;2245;48.136;13.428;2022-07-23T11:18:56;8.00;;;5.67;;
4464;SDS011;2245;48.136;13.428;2022-07-23T11:24:14;6.77;;;6.17;;
4464;SDS011;2245;48.136;13.428;2022-07-23T11:26:46;6.67;;;6.17;;
4464;SDS011;2245;48.136;13.428;2022-07-23T11:29:40;6.47;;;5.87;;
4464;SDS011;2245;48.136;13.428;2022-07-23T11:32:22;7.03;;;6.30;;
4464;SDS011;2245;48.136;13.428;2022-07-23T11:35:21;6.33;;;5.80;;
4464;SDS011;2245;48.136;13.428;2022-07-23T11:37:52;7.00;;;6.40;;
4464;SDS011;2245;48.136;13.428;2022-07-23T11:40:24;6.50;;;5.90;;
4464;SDS011;2245;48.136;13.428;2022-07-23T11:42:55;7.23;;;6.53;;
4464;SDS011;2245;48.136;13.428;2022-07-23T11:45:30;8.10;;;5.53;;
4464;SDS011;2245;48.136;13.428;2022-07-23T11:48:01;6.73;;;6.03;;
4464;SDS011;2245;48.136;13.428;2022-07-23T11:50:32;6.30;;;5.80;;
4464;SDS011;2245;48.136;13.428;2022-07-23T11:52:59;8.50;;;5.97;;
4464;SDS011;2245;48.136;13.428;2022-07-23T11:55:27;6.13;;;5.63;;
4464;SDS011;2245;48.136;13.428;2022-07-23T11:57:57;6.93;;;5.43;;
4464;SDS011;2245;48.136;13.428;2022-07-23T12:00:27;7.00;;;5.73;;
4464;SDS011;2245;48.136;13.428;2022-07-23T12:02:57;6.50;;;6.00;;
4464;SDS011;2245;48.136;13.428;2022-07-23T12:05:29;16.00;;;6.40;;
4464;SDS011;2245;48.136;13.428;2022-07-23T12:07:58;6.50;;;5.83;;
4464;SDS011;2245;48.136;13.428;2022-07-23T12:10:28;8.23;;;5.90;;
4464;SDS011;2245;48.136;13.428;2022-07-23T12:12:58;6.80;;;6.30;;
4464;SDS011;2245;48.136;13.428;2022-07-23T12:15:30;7.50;;;5.67;;
4464;SDS011;2245;48.136;13.428;2022-07-23T12:18:04;6.13;;;5.40;;
4464;SDS011;2245;48.136;13.428;2022-07-23T12:20:39;6.53;;;5.13;;
4464;SDS011;2245;48.136;13.428;2022-07-23T12:23:16;5.83;;;5.33;;
4464;SDS011;2245;48.136;13.428;2022-07-23T12:25:51;11.70;;;5.97;;
4464;SDS011;2245;48.136;13.428;2022-07-23T12:28:27;6.43;;;5.93;;
4464;SDS011;2245;48.136;13.428;2022-07-23T12:31:04;6.50;;;5.90;;
4464;SDS011;2245;48.136;13.428;2022-07-23T12:33:39;6.27;;;5.70;;
4464;SDS011;2245;48.136;13.428;2022-07-23T12:36:17;6.47;;;5.87;;
4464;SDS011;2245;48.136;13.428;2022-07-23T12:38:58;8.93;;;6.67;;
4464;SDS011;2245;48.136;13.428;2022-07-23T12:41:27;6.57;;;5.40;;
4464;SDS011;2245;48.136;13.428;2022-07-23T12:44:20;10.00;;;6.10;;
4464;SDS011;2245;48.136;13.428;2022-07-23T12:46:52;9.30;;;5.90;;
4464;SDS011;2245;48.136;13.428;2022-07-23T12:49:26;9.20;;;7.00;;
4464;SDS011;2245;48.136;13.428;2022-07-23T12:51:59;6.73;;;6.13;;
4464;SDS011;2245;48.136;13.428;2022-07-23T12:54:27;7.60;;;6.93;;
4464;SDS011;2245;48.136;13.428;2022-07-23T12:56:55;6.93;;;6.23;;
4464;SDS011;2245;48.136;13.428;2022-07-23T12:59:24;6.50;;;5.90;;
4464;SDS011;2245;48.136;13.428;2022-07-23T13:01:54;6.10;;;5.50;;
4464;SDS011;2245;48.136;13.428;2022-07-23T13:04:24;6.03;;;5.53;;
4464;SDS011;2245;48.136;13.428;2022-07-23T13:06:55;5.47;;;5.07;;
4464;SDS011;2245;48.136;13.428;2022-07-23T13:09:25;5.70;;;5.10;;
4464;SDS011;2245;48.136;13.428;2022-07-23T13:11:54;5.80;;;5.20;;
4464;SDS011;2245;48.136;13.428;2022-07-23T13:14:25;5.70;;;5.20;;
4464;SDS011;2245;48.136;13.428;2022-07-23T13:16:55;6.40;;;5.30;;
4464;SDS011;2245;48.136;13.428;2022-07-23T13:19:25;5.90;;;5.40;;
4464;SDS011;2245;48.136;13.428;2022-07-23T13:21:54;5.90;;;5.40;;
4464;SDS011;2245;48.136;13.428;2022-07-23T13:24:28;6.03;;;5.53;;
4464;SDS011;2245;48.136;13.428;2022-07-23T13:27:02;5.50;;;5.10;;
4464;SDS011;2245;48.136;13.428;2022-07-23T13:29:37;6.97;;;5.60;;
4464;SDS011;2245;48.136;13.428;2022-07-23T13:32:12;9.47;;;6.20;;
4464;SDS011;2245;48.136;13.428;2022-07-23T13:34:41;7.87;;;6.13;;
4464;SDS011;2245;48.136;13.428;2022-07-23T13:37:15;7.53;;;6.83;;
4464;SDS011;2245;48.136;13.428;2022-07-23T13:39:53;11.43;;;7.40;;
4464;SDS011;2245;48.136;13.428;2022-07-23T13:42:26;6.93;;;5.97;;
4464;SDS011;2245;48.136;13.428;2022-07-23T13:45:02;6.00;;;5.47;;
4464;SDS011;2245;48.136;13.428;2022-07-23T13:47:49;6.40;;;5.83;;
4464;SDS011;2245;48.136;13.428;2022-07-23T13:50:23;7.97;;;5.90;;
4464;SDS011;2245;48.136;13.428;2022-07-23T13:53:00;5.97;;;5.57;;
4464;SDS011;2245;48.136;13.428;2022-07-23T13:55:33;7.27;;;5.33;;
4464;SDS011;2245;48.136;13.428;2022-07-23T13:58:05;5.47;;;4.97;;
4464;SDS011;2245;48.136;13.428;2022-07-23T14:00:35;6.00;;;5.40;;
4464;SDS011;2245;48.136;13.428;2022-07-23T14:03:06;6.20;;;5.60;;
4464;SDS011;2245;48.136;13.428;2022-07-23T14:05:35;6.90;;;5.33;;
4464;SDS011;2245;48.136;13.428;2022-07-23T14:08:04;6.73;;;5.90;;
4464;SDS011;2245;48.136;13.428;2022-07-23T14:10:35;8.73;;;5.20;;
4464;SDS011;2245;48.136;13.428;2022-07-23T14:13:06;8.43;;;6.00;;
4464;SDS011;2245;48.136;13.428;2022-07-23T14:15:35;7.63;;;5.77;;
4464;SDS011;2245;48.136;13.428;2022-07-23T14:18:10;5.20;;;4.80;;
4464;SDS011;2245;48.136;13.428;2022-07-23T14:20:40;7.80;;;5.00;;
4464;SDS011;2245;48.136;13.428;2022-07-23T14:23:09;7.60;;;5.77;;
4464;SDS011;2245;48.136;13.428;2022-07-23T14:25:38;6.63;;;5.13;;
4464;SDS011;2245;48.136;13.428;2022-07-23T14:28:08;5.33;;;4.83;;
4464;SDS011;2245;48.136;13.428;2022-07-23T14:30:37;8.87;;;5.87;;
4464;SDS011;2245;48.136;13.428;2022-07-23T14:33:09;10.60;;;5.90;;
4464;SDS011;2245;48.136;13.428;2022-07-23T14:35:40;8.23;;;6.00;;
4464;SDS011;2245;48.136;13.428;2022-07-23T14:38:09;6.43;;;5.83;;
4464;SDS011;2245;48.136;13.428;2022-07-23T14:40:40;7.63;;;5.73;;
4464;SDS011;2245;48.136;13.428;2022-07-23T14:43:10;8.50;;;5.80;;
4464;SDS011;2245;48.136;13.428;2022-07-23T14:45:40;6.93;;;6.23;;
4464;SDS011;2245;48.136;13.428;2022-07-23T14:48:11;7.80;;;6.17;;
4464;SDS011;2245;48.136;13.428;2022-07-23T14:50:40;8.23;;;6.07;;
4464;SDS011;2245;48.136;13.428;2022-07-23T14:53:08;6.93;;;6.00;;
4464;SDS011;2245;48.136;13.428;2022-07-23T14:55:41;6.13;;;5.63;;
4464;SDS011;2245;48.136;13.428;2022-07-23T14:58:09;6.70;;;5.03;;
4464;SDS011;2245;48.136;13.428;2022-07-23T15:00:39;10.53;;;5.70;;
4464;SDS011;2245;48.136;13.428;2022-07-23T15:03:10;8.47;;;5.80;;
4464;SDS011;2245;48.136;13.428;2022-07-23T15:05:40;8.40;;;5.70;;
4464;SDS011;2245;48.136;13.428;2022-07-23T15:08:09;15.10;;;7.20;;
4464;SDS011;2245;48.136;13.428;2022-07-23T15:10:38;6.73;;;6.13;;
4464;SDS011;2245;48.136;13.428;2022-07-23T15:13:08;8.00;;;6.30;;
4464;SDS011;2245;48.136;13.428;2022-07-23T15:15:37;12.80;;;8.57;;
4464;SDS011;2245;48.136;13.428;2022-07-23T15:18:06;6.27;;;5.67;;
4464;SDS011;2245;48.136;13.428;2022-07-23T15:20:35;11.50;;;5.60;;
4464;SDS011;2245;48.136;13.428;2022-07-23T15:23:04;11.60;;;6.50;;
4464;SDS011;2245;48.136;13.428;2022-07-23T15:25:33;8.27;;;7.37;;
4464;SDS011;2245;48.136;13.428;2022-07-23T15:28:02;27.60;;;10.00;;
4464;SDS011;2245;48.136;13.428;2022-07-23T15:30:33;14.03;;;6.90;;
4464;SDS011;2245;48.136;13.428;2022-07-23T15:33:03;14.00;;;8.60;;
4464;SDS011;2245;48.136;13.428;2022-07-23T15:35:33;7.73;;;6.83;;
4464;SDS011;2245;48.136;13.428;2022-07-23T15:38:02;8.47;;;7.00;;